createdAt,value
2017-10-24T00:00:51.508Z,84.60
2017-10-24T00:05:52.578Z,84.60
2017-10-24T00:10:53.686Z,84.60
2017-10-24T00:15:54.744Z,84.50
2017-10-24T00:20:55.815Z,84.50
2017-10-24T00:25:56.890Z,84.90
2017-10-24T00:36:34.947Z,84.70
2017-10-24T00:41:36.016Z,84.30
2017-10-24T00:46:37.073Z,84.50
2017-10-24T00:51:38.158Z,84.00
2017-10-24T00:56:40.141Z,83.70
2017-10-24T01:07:18.402Z,83.00
2017-10-24T01:12:20.235Z,83.20
2017-10-24T01:17:21.341Z,83.10
2017-10-24T01:22:23.152Z,83.30
2017-10-24T01:27:24.233Z,83.30
2017-10-24T01:32:32.353Z,83.60
2017-10-24T01:37:34.166Z,84.10
2017-10-24T01:42:35.262Z,84.10
2017-10-24T01:47:36.332Z,84.40
2017-10-24T01:52:37.420Z,83.20
2017-10-24T01:57:38.697Z,83.20
2017-10-24T02:08:25.791Z,83.10
2017-10-24T02:13:27.593Z,83.60
2017-10-24T02:18:28.678Z,83.50
2017-10-24T02:23:29.764Z,83.50
2017-10-24T02:28:36.814Z,82.60
2017-10-24T02:33:37.909Z,82.70
2017-10-24T02:38:39.011Z,81.90
2017-10-24T02:43:40.083Z,81.80
2017-10-24T02:48:41.153Z,81.30
2017-10-24T02:53:42.231Z,81.80
2017-10-24T02:58:43.308Z,81.40
2017-10-24T03:03:44.381Z,81.70
2017-10-24T03:14:24.589Z,82.90
2017-10-24T03:19:26.382Z,83.30
2017-10-24T03:24:28.219Z,83.30
2017-10-24T03:29:29.310Z,83.30
2017-10-24T03:34:31.167Z,83.80
2017-10-24T03:39:32.259Z,83.80
2017-10-24T03:44:33.327Z,83.90
2017-10-24T03:49:34.408Z,84.80
2017-10-24T03:54:35.498Z,84.50
2017-10-24T03:59:36.564Z,83.80
2017-10-24T04:04:38.427Z,83.00
2017-10-24T04:09:57.340Z,83.00
2017-10-24T04:14:59.198Z,82.70
2017-10-24T04:20:01.024Z,82.90
2017-10-24T04:25:02.117Z,82.80
2017-10-24T04:30:03.200Z,82.90
2017-10-24T04:35:05.022Z,83.40
2017-10-24T04:40:06.076Z,83.40
2017-10-24T04:45:07.122Z,83.40
2017-10-24T04:50:08.196Z,83.40
2017-10-24T04:55:09.277Z,83.00
2017-10-24T05:00:10.336Z,83.50
2017-10-24T05:05:11.402Z,84.10
2017-10-24T05:10:12.482Z,84.20
2017-10-24T05:15:14.308Z,84.60
2017-10-24T05:20:15.424Z,84.60
2017-10-24T05:41:41.809Z,84.80
2017-10-24T05:46:42.854Z,85.10
2017-10-24T05:51:43.944Z,85.00
2017-10-24T05:56:45.009Z,85.00
2017-10-24T06:01:46.053Z,85.30
2017-10-24T06:06:47.122Z,86.10
2017-10-24T06:11:48.195Z,86.50
2017-10-24T06:16:49.273Z,85.90
2017-10-24T06:21:50.359Z,85.60
2017-10-24T06:27:04.935Z,86.20
2017-10-24T06:32:05.992Z,86.80
2017-10-24T06:42:34.980Z,85.10
2017-10-24T06:47:36.029Z,84.80
2017-10-24T06:58:12.852Z,84.90
2017-10-24T07:14:28.397Z,78.00
2017-10-24T07:19:29.454Z,76.30
2017-10-24T07:24:34.122Z,76.80
2017-10-24T07:29:35.190Z,75.70
2017-10-24T07:34:47.797Z,73.80
2017-10-24T07:39:48.859Z,72.80
2017-10-24T07:44:49.954Z,71.50
2017-10-24T07:49:51.071Z,72.00
2017-10-24T07:54:52.122Z,68.60
2017-10-24T08:05:36.919Z,63.90
2017-10-24T08:16:23.761Z,57.80
2017-10-24T08:32:26.070Z,52.40
2017-10-24T08:48:37.286Z,52.40
2017-10-24T08:53:38.340Z,52.70
2017-10-24T08:58:39.420Z,53.60
2017-10-24T09:04:05.885Z,52.00
2017-10-24T09:25:23.141Z,50.40
2017-10-24T09:30:44.665Z,48.40
2017-10-24T09:35:46.487Z,43.60
2017-10-24T09:40:47.559Z,43.60
2017-10-24T09:45:48.617Z,44.80
2017-10-24T09:50:50.525Z,45.40
2017-10-24T09:55:52.353Z,42.40
2017-10-24T10:00:54.453Z,42.80
2017-10-24T10:06:10.474Z,41.90
2017-10-24T10:11:11.546Z,44.40
2017-10-24T10:16:18.938Z,45.70
2017-10-24T10:21:22.033Z,42.50
2017-10-24T10:26:26.698Z,42.20
2017-10-24T10:31:31.436Z,43.30
2017-10-24T10:36:37.411Z,42.10
2017-10-24T10:41:38.497Z,45.10
2017-10-24T10:46:40.312Z,45.60
2017-10-24T10:51:47.328Z,45.60
2017-10-24T10:56:52.014Z,43.00
2017-10-24T11:01:54.820Z,42.80
2017-10-24T11:06:59.533Z,42.90
2017-10-24T11:12:08.313Z,43.80
2017-10-24T11:17:17.997Z,40.70
2017-10-24T11:22:19.081Z,41.20
2017-10-24T11:27:20.157Z,41.30
2017-10-24T11:32:21.951Z,43.20
2017-10-24T11:37:23.761Z,43.20
2017-10-24T11:42:24.825Z,43.30
2017-10-24T11:47:25.904Z,45.40
2017-10-24T11:52:27.963Z,48.00
2017-10-24T11:57:29.083Z,49.80
2017-10-24T12:02:34.559Z,48.80
2017-10-24T12:07:42.272Z,48.70
2017-10-24T12:12:43.354Z,49.70
2017-10-24T12:17:44.449Z,50.80
2017-10-24T12:22:49.038Z,49.30
2017-10-24T12:27:50.085Z,51.30
2017-10-24T12:32:51.161Z,52.60
2017-10-24T12:37:52.250Z,53.40
2017-10-24T12:42:53.325Z,53.60
2017-10-24T12:47:54.408Z,54.10
2017-10-24T12:52:56.222Z,54.70
2017-10-24T12:58:01.365Z,54.80
2017-10-24T13:03:05.658Z,54.50
2017-10-24T13:08:14.285Z,56.70
2017-10-24T13:13:15.360Z,56.70
2017-10-24T13:18:24.125Z,61.00
2017-10-24T13:23:25.210Z,60.90
2017-10-24T13:28:26.273Z,63.40
2017-10-24T13:33:33.743Z,61.10
2017-10-24T13:38:38.694Z,60.30
2017-10-24T13:43:40.750Z,57.70
2017-10-24T13:48:42.553Z,57.10
2017-10-24T13:53:43.600Z,57.20
2017-10-24T13:58:44.669Z,57.50
2017-10-24T14:03:45.738Z,56.90
2017-10-24T14:08:52.992Z,57.10
2017-10-24T14:13:54.796Z,55.80
2017-10-24T14:18:55.845Z,55.80
2017-10-24T14:23:57.678Z,55.20
2017-10-24T14:28:58.770Z,55.20
2017-10-24T14:33:59.869Z,54.20
2017-10-24T14:39:00.958Z,56.40
2017-10-24T14:44:05.162Z,57.50
2017-10-24T14:49:06.238Z,57.60
2017-10-24T14:54:07.312Z,58.10
2017-10-24T14:59:08.382Z,58.30
2017-10-24T15:04:09.465Z,58.80
2017-10-24T15:09:11.272Z,60.10
2017-10-24T15:14:12.344Z,60.10
2017-10-24T15:19:13.465Z,61.50
2017-10-24T15:24:15.289Z,60.30
2017-10-24T15:29:24.366Z,60.80
2017-10-24T15:34:28.215Z,61.80
2017-10-24T15:39:35.929Z,61.80
2017-10-24T15:44:37.047Z,62.70
2017-10-24T15:49:38.139Z,63.30
2017-10-24T15:54:39.203Z,63.90
2017-10-24T15:59:40.266Z,64.50
2017-10-24T16:04:41.321Z,65.10
2017-10-24T16:09:42.457Z,66.00
2017-10-24T16:14:44.293Z,66.80
2017-10-24T16:19:45.416Z,66.80
2017-10-24T16:24:46.500Z,66.80
2017-10-24T16:29:47.557Z,67.30
2017-10-24T16:34:48.606Z,68.20
2017-10-24T16:39:49.665Z,68.50
2017-10-24T16:44:50.773Z,69.50
2017-10-24T16:49:51.819Z,69.50
2017-10-24T16:54:52.909Z,68.30
2017-10-24T16:59:54.721Z,69.60
2017-10-24T17:04:55.805Z,69.50
2017-10-24T17:09:56.884Z,69.40
2017-10-24T17:14:58.722Z,70.60
2017-10-24T17:19:59.889Z,70.60
2017-10-24T17:25:01.173Z,70.80
2017-10-24T17:30:03.289Z,71.40
2017-10-24T17:35:05.829Z,71.30
2017-10-24T17:40:07.364Z,72.50
2017-10-24T17:45:09.622Z,73.90
2017-10-24T17:50:11.443Z,75.60
2017-10-24T17:55:12.504Z,76.30
2017-10-24T18:00:13.569Z,76.20
2017-10-24T18:05:14.661Z,76.50
2017-10-24T18:10:15.741Z,77.00
2017-10-24T18:15:17.541Z,78.40
2017-10-24T18:20:18.633Z,78.40
2017-10-24T18:25:19.710Z,78.30
2017-10-24T18:30:20.775Z,78.30
2017-10-24T18:35:21.876Z,78.20
2017-10-24T18:40:22.945Z,78.40
2017-10-24T18:45:24.085Z,78.10
2017-10-24T18:50:25.157Z,79.10
2017-10-24T18:55:26.243Z,78.60
2017-10-24T19:00:27.325Z,78.90
2017-10-24T19:05:28.413Z,79.00
2017-10-24T19:10:29.485Z,78.20
2017-10-24T19:15:30.558Z,78.10
2017-10-24T19:20:31.632Z,78.60
2017-10-24T19:25:32.708Z,78.90
2017-10-24T19:30:33.769Z,79.00
2017-10-24T19:35:34.841Z,79.10
2017-10-24T19:40:36.667Z,80.30
2017-10-24T19:45:37.729Z,80.40
2017-10-24T19:50:38.809Z,80.50
2017-10-24T19:55:39.872Z,80.50
2017-10-24T20:00:40.941Z,81.30
2017-10-24T20:05:41.997Z,81.10
2017-10-24T20:10:43.073Z,81.70
2017-10-24T20:15:44.886Z,81.80
2017-10-24T20:20:45.975Z,81.80
2017-10-24T20:25:47.051Z,81.80
2017-10-24T20:30:48.120Z,82.10
2017-10-24T20:35:49.904Z,82.60
2017-10-24T20:40:50.988Z,82.60
2017-10-24T20:45:52.058Z,82.60
2017-10-24T20:50:53.150Z,82.60
2017-10-24T20:55:54.217Z,83.00
2017-10-24T21:00:55.266Z,82.90
2017-10-24T21:05:56.368Z,82.00
2017-10-24T21:10:57.450Z,82.40
2017-10-24T21:15:58.515Z,82.30
2017-10-24T21:20:59.594Z,82.60
2017-10-24T21:26:00.693Z,82.50
2017-10-24T21:31:01.832Z,82.80
2017-10-24T21:36:02.894Z,82.30
2017-10-24T21:41:03.976Z,82.60
2017-10-24T21:46:05.029Z,82.50
2017-10-24T21:51:06.107Z,82.50
2017-10-24T21:56:07.183Z,83.20
2017-10-24T22:01:08.252Z,82.80
2017-10-24T22:06:09.626Z,82.50
2017-10-24T22:11:10.691Z,82.80
2017-10-24T22:16:11.751Z,82.90
2017-10-24T22:21:12.822Z,82.70
2017-10-24T22:26:13.909Z,83.00
2017-10-24T22:31:14.966Z,83.10
2017-10-24T22:36:16.030Z,83.60
2017-10-24T22:41:17.085Z,83.90
2017-10-24T22:46:18.157Z,83.70
2017-10-24T22:51:19.223Z,84.00
2017-10-24T22:56:20.286Z,84.60
2017-10-24T23:01:21.350Z,84.60
2017-10-24T23:06:22.429Z,85.30
2017-10-24T23:11:23.494Z,85.40
2017-10-24T23:16:24.565Z,86.30
2017-10-24T23:21:25.616Z,85.90
2017-10-24T23:26:26.683Z,86.20
2017-10-24T23:31:30.789Z,86.20
2017-10-24T23:36:31.853Z,86.20
2017-10-24T23:41:32.909Z,86.20
2017-10-24T23:46:33.954Z,88.20
2017-10-24T23:51:35.021Z,88.80
2017-10-24T23:56:36.081Z,89.80
